Terminal Aerodrome Forecast
Issued by NWS Bismarck, ND

Home | Current Version | Previous Version | Text Only | Print | Product List | Glossary Off
Versions: 1 2 3 4 5 6 7 8 9 10 11 12 13 14

634
FTUS43 KBIS 242331
TAFBIS
TAF
KBIS 242331Z 2500/2524 15016G23KT P6SM SKC
     FM250200 14008KT P6SM FEW100 FEW250
     FM250400 11006KT P6SM FEW110 FEW250
     FM250600 05004KT P6SM FEW110 SCT250
     FM251800 36008KT P6SM SCT200=

USA.gov is the U.S. government's official web portal to all federal, state and local government web resources and services.